Ashboro, Indiana
Current Conditions -  °F | °C
As of 11:53 PM on Thursday 30 Oct 2014 (Local Time) from KHUF Reporting Station
Light Rain Light Rain  
Wind Chill: 47°   Ceiling: 6000
Heat Index: 47°   Visibility: 10mi
Dew Point: 44°   Wind: 0mph
Humidity: 90%   Direction: NA
Pressure: 30.07"   Gusts: NA
Location:  39.3787°N, 87.0992°W
Report Text: KHUF 310353Z 00000KT 10SM -RA OVC060 08/07 A3007 RMK AO2 SLP183 P0002 T00830067
Loading
Personal Weather Stations






























Interactive Weather Map
Tropical Storm Tracking
New forecast layout! Learn more

10-Day Weather Forecast

Advertisements
Track Severe Weather on mobile